Time;durP1;ratioP1;P1;durP2;ratioP2;P2;SDS_P1;SDS_P2;PMS_P1;PMS_P2;Temp;Humidity;BMP_temperature;BMP_pressure;BME280_temperature;BME280_humidity;BME280_pressure;Samples;Min_cycle;Max_cycle;Signal;HPM_P1;HPM_P2
2021/08/24 00:01:21;;;;;;;5.57;4.40;;;14.60;99.90;;;;;;5033963;28;20263;-71
2021/08/24 00:03:47;;;;;;;5.17;4.20;;;14.60;99.90;;;;;;5051986;28;20211;-71
2021/08/24 00:06:12;;;;;;;4.80;3.83;;;14.60;99.90;;;;;;5052204;28;20168;-72
2021/08/24 00:08:40;;;;;;;4.67;4.20;;;14.60;99.90;;;;;;5051415;28;20423;-71
2021/08/24 00:11:08;;;;;;;4.90;4.27;;;14.60;99.90;;;;;;5052229;28;20640;-71
2021/08/24 00:13:33;;;;;;;4.60;3.73;;;14.50;99.90;;;;;;5052237;28;20736;-71
2021/08/24 00:15:59;;;;;;;4.97;4.00;;;14.50;99.90;;;;;;5052241;28;20980;-71
2021/08/24 00:18:24;;;;;;;9.33;5.53;;;14.50;99.90;;;;;;5035725;28;20247;-71
2021/08/24 00:20:52;;;;;;;5.57;4.27;;;14.50;99.90;;;;;;5032396;28;20229;-71
2021/08/24 00:23:20;;;;;;;4.73;4.03;;;14.40;99.90;;;;;;5036757;28;20235;-71
2021/08/24 00:25:48;;;;;;;4.10;3.50;;;14.40;99.90;;;;;;5052100;28;20457;-71
2021/08/24 00:28:14;;;;;;;5.03;3.73;;;14.40;99.90;;;;;;5035360;28;20436;-71
2021/08/24 00:30:39;;;;;;;4.13;3.73;;;14.40;99.90;;;;;;5031946;28;20492;-71
2021/08/24 00:33:06;;;;;;;5.10;3.93;;;14.30;99.90;;;;;;5032308;28;20192;-71
2021/08/24 00:35:38;;;;;;;4.70;4.20;;;14.30;99.90;;;;;;5033814;28;20272;-71
2021/08/24 00:38:05;;;;;;;4.60;3.30;;;14.30;99.90;;;;;;5032085;28;20455;-71
2021/08/24 00:40:31;;;;;;;4.97;3.70;;;14.20;99.90;;;;;;5032060;28;20403;-71
2021/08/24 00:42:56;;;;;;;3.63;3.30;;;14.20;99.90;;;;;;5032100;28;20877;-71
2021/08/24 00:45:22;;;;;;;6.13;4.60;;;14.20;99.90;;;;;;5033849;28;20562;-71
2021/08/24 00:47:50;;;;;;;5.20;4.00;;;14.20;99.90;;;;;;5035815;28;20154;-71
2021/08/24 00:50:31;;;;;;;6.27;4.13;;;14.20;99.90;;;;;;5036314;28;20247;-71
2021/08/24 00:53:01;;;;;;;9.40;5.13;;;14.20;99.90;;;;;;5036761;28;20831;-71
2021/08/24 00:55:27;;;;;;;6.57;4.80;;;14.20;99.90;;;;;;5035601;28;20403;-71
2021/08/24 00:57:57;;;;;;;5.20;4.20;;;14.10;99.90;;;;;;5050491;28;20824;-71
2021/08/24 01:00:24;;;;;;;5.47;4.93;;;14.10;99.90;;;;;;5048842;28;20439;-71
2021/08/24 01:02:50;;;;;;;5.70;4.80;;;14.10;99.90;;;;;;5035486;28;20509;-71
2021/08/24 01:05:15;;;;;;;5.53;4.30;;;14.10;99.90;;;;;;5035720;28;20393;-71
2021/08/24 01:07:47;;;;;;;5.50;4.43;;;14.10;99.90;;;;;;5035368;28;20158;-71
2021/08/24 01:13:14;;;;;;;4.97;4.47;;;14.10;99.90;;;;;;5068387;28;20514;-72
2021/08/24 01:16:04;;;;;;;5.03;3.90;;;14.10;99.90;;;;;;5069760;28;20390;-71
2021/08/24 01:27:16;;;;;;;4.20;3.77;;;14.00;99.90;;;;;;5065344;28;20521;-71
2021/08/24 01:37:45;;;;;;;6.27;5.40;;;14.00;99.90;;;;;;5069599;28;20918;-75
2021/08/24 01:40:16;;;;;;;5.77;4.80;;;13.90;99.90;;;;;;5070109;28;20746;-75
2021/08/24 01:42:42;;;;;;;5.20;4.30;;;13.90;99.90;;;;;;5053914;28;20923;-75
2021/08/24 01:45:16;;;;;;;4.70;4.30;;;13.90;99.90;;;;;;5069072;28;20406;-76
2021/08/24 01:48:06;;;;;;;6.13;4.57;;;13.90;99.90;;;;;;5069795;28;20387;-75
2021/08/24 01:50:46;;;;;;;8.03;5.10;;;13.90;99.90;;;;;;5068645;28;20394;-75
2021/08/24 01:53:26;;;;;;;4.80;4.40;;;13.90;99.90;;;;;;5069546;28;20452;-75
2021/08/24 01:55:57;;;;;;;5.77;4.97;;;13.80;99.90;;;;;;5070067;28;20762;-75
2021/08/24 02:01:04;;;;;;;5.00;3.77;;;13.80;99.90;;;;;;5058717;28;20533;-71
2021/08/24 02:03:36;;;;;;;4.73;4.23;;;13.80;99.90;;;;;;5049978;28;20430;-71
2021/08/24 02:08:57;;;;;;;7.13;4.40;;;13.70;99.90;;;;;;5069871;28;20513;-71
2021/08/24 02:11:27;;;;;;;5.00;4.03;;;13.60;99.90;;;;;;5069731;28;20390;-71
2021/08/24 02:13:53;;;;;;;4.70;4.30;;;13.60;99.90;;;;;;5069849;28;20465;-71
2021/08/24 02:16:23;;;;;;;7.10;4.90;;;13.60;99.90;;;;;;5069822;28;20402;-71
2021/08/24 02:18:54;;;;;;;8.67;5.87;;;13.60;99.90;;;;;;5068217;28;20942;-71
2021/08/24 02:21:28;;;;;;;6.87;5.40;;;13.60;99.90;;;;;;5069640;28;20933;-71
2021/08/24 02:23:57;;;;;;;7.97;5.70;;;13.60;99.90;;;;;;5068576;28;20399;-71
2021/08/24 02:26:26;;;;;;;6.50;4.30;;;13.60;99.90;;;;;;5049703;28;20407;-71
2021/08/24 02:28:55;;;;;;;5.20;4.43;;;13.60;99.90;;;;;;5049967;28;20464;-70
2021/08/24 02:31:49;;;;;;;7.83;4.90;;;13.50;99.90;;;;;;5060820;28;20414;-70
2021/08/24 02:34:38;;;;;;;4.73;4.20;;;13.50;99.90;;;;;;5067697;28;20430;-70
2021/08/24 02:37:17;;;;;;;5.80;3.80;;;13.50;99.90;;;;;;5069147;28;20494;-70
2021/08/24 02:39:58;;;;;;;6.20;4.80;;;13.50;99.90;;;;;;5069118;28;20419;-70
2021/08/24 02:42:31;;;;;;;7.40;5.07;;;13.50;99.90;;;;;;5069204;28;20382;-70
2021/08/24 02:45:04;;;;;;;6.40;4.40;;;13.40;99.90;;;;;;5068927;28;20413;-70
2021/08/24 02:47:31;;;;;;;6.40;5.10;;;13.50;99.90;;;;;;5069265;28;20437;-70
2021/08/24 02:49:57;;;;;;;6.60;4.63;;;13.40;99.90;;;;;;5069013;28;20386;-70
2021/08/24 02:52:23;;;;;;;5.00;4.43;;;13.40;99.90;;;;;;5067390;28;20401;-70
2021/08/24 02:54:52;;;;;;;5.20;4.57;;;13.40;99.90;;;;;;5068917;28;20582;-70
2021/08/24 02:57:18;;;;;;;4.37;3.97;;;13.40;99.90;;;;;;5069344;28;20398;-70
2021/08/24 02:59:44;;;;;;;5.87;5.27;;;13.40;99.90;;;;;;5066588;28;20426;-70
2021/08/24 03:02:16;;;;;;;4.50;4.10;;;13.30;99.90;;;;;;5048719;28;20435;-71
2021/08/24 03:04:42;;;;;;;5.20;4.67;;;13.30;99.90;;;;;;5048906;28;20230;-71
2021/08/24 03:07:15;;;;;;;5.20;4.70;;;13.30;99.90;;;;;;5048495;28;20470;-71
2021/08/24 03:09:42;;;;;;;5.03;3.70;;;13.30;99.90;;;;;;5066029;28;20226;-71
2021/08/24 03:17:35;;;;;;;6.13;4.27;;;13.30;99.90;;;;;;5061251;28;20529;-71
2021/08/24 03:20:05;;;;;;;5.47;4.97;;;13.20;99.90;;;;;;5049877;28;20426;-71
2021/08/24 03:22:31;;;;;;;4.63;4.20;;;13.20;99.90;;;;;;5049752;28;20437;-71
2021/08/24 03:24:59;;;;;;;5.27;4.00;;;13.20;99.90;;;;;;5050883;28;20449;-71
2021/08/24 03:27:25;;;;;;;6.67;5.50;;;13.20;99.90;;;;;;5049681;28;20896;-71
2021/08/24 03:29:57;;;;;;;5.87;4.20;;;13.20;99.90;;;;;;5056622;28;20425;-71
2021/08/24 03:32:23;;;;;;;8.67;4.53;;;13.10;99.90;;;;;;5049788;28;20493;-71
2021/08/24 03:34:49;;;;;;;4.93;4.47;;;13.10;99.90;;;;;;5049495;28;20387;-71
2021/08/24 03:37:14;;;;;;;9.27;4.90;;;13.10;99.90;;;;;;5049334;28;20450;-71
2021/08/24 03:39:40;;;;;;;6.97;5.00;;;13.10;99.90;;;;;;5049556;28;20631;-71
2021/08/24 03:42:05;;;;;;;7.07;4.03;;;13.10;99.90;;;;;;5053860;28;20186;-71
2021/08/24 03:44:31;;;;;;;4.87;4.40;;;13.10;99.90;;;;;;5069301;28;20164;-71
2021/08/24 03:46:56;;;;;;;5.20;3.70;;;13.10;99.90;;;;;;5069430;28;20525;-71
2021/08/24 03:49:22;;;;;;;7.40;4.30;;;13.10;99.90;;;;;;5069253;28;20662;-71
2021/08/24 03:51:47;;;;;;;7.37;4.47;;;13.10;99.90;;;;;;5069162;28;20160;-71
2021/08/24 03:54:13;;;;;;;5.97;5.37;;;13.10;99.90;;;;;;5069157;28;20167;-71
2021/08/24 03:56:41;;;;;;;6.80;4.73;;;13.10;99.90;;;;;;5068804;28;20202;-71
2021/08/24 03:59:06;;;;;;;5.43;4.93;;;13.00;99.90;;;;;;5066374;28;20345;-71
2021/08/24 04:01:32;;;;;;;6.77;4.77;;;13.00;99.90;;;;;;5049788;28;20514;-71
2021/08/24 04:03:58;;;;;;;6.70;5.27;;;13.00;99.90;;;;;;5049018;28;20187;-71
2021/08/24 04:06:24;;;;;;;5.13;4.17;;;13.00;99.90;;;;;;5049183;28;20586;-71
2021/08/24 04:08:49;;;;;;;4.33;3.47;;;13.00;99.90;;;;;;5048926;28;20391;-72
2021/08/24 04:11:15;;;;;;;9.73;4.50;;;13.00;99.90;;;;;;5048835;28;20529;-71
2021/08/24 04:13:41;;;;;;;5.90;5.27;;;13.00;99.90;;;;;;5048929;28;20239;-71
2021/08/24 04:16:10;;;;;;;5.03;4.53;;;13.00;99.90;;;;;;5053578;28;20291;-71
2021/08/24 04:18:36;;;;;;;6.47;4.17;;;13.00;99.90;;;;;;5049748;28;20184;-71
2021/08/24 04:21:06;;;;;;;5.37;4.53;;;12.90;99.90;;;;;;5048748;28;20880;-71
2021/08/24 04:23:32;;;;;;;5.57;4.07;;;12.90;99.90;;;;;;5048895;28;20391;-71
2021/08/24 04:25:59;;;;;;;4.90;3.90;;;12.90;99.90;;;;;;5048561;28;20395;-71
2021/08/24 04:28:24;;;;;;;5.83;3.80;;;12.90;99.90;;;;;;5037487;28;20153;-72
2021/08/24 04:30:50;;;;;;;5.33;3.63;;;12.90;99.90;;;;;;5040430;28;20514;-72
2021/08/24 04:33:21;;;;;;;4.33;3.40;;;12.90;99.90;;;;;;5041223;28;20711;-71
2021/08/24 04:35:48;;;;;;;5.10;3.80;;;12.90;99.90;;;;;;5055003;28;20481;-71
2021/08/24 04:38:14;;;;;;;4.30;4.00;;;12.90;99.90;;;;;;5048241;28;20953;-71
2021/08/24 04:40:39;;;;;;;7.10;4.47;;;12.90;99.90;;;;;;5050217;28;20426;-71
2021/08/24 04:43:05;;;;;;;6.03;4.20;;;13.00;99.90;;;;;;5055194;28;20172;-71
2021/08/24 04:45:30;;;;;;;6.50;4.73;;;12.90;99.90;;;;;;5049074;28;20176;-71
2021/08/24 04:47:56;;;;;;;4.60;4.20;;;12.90;99.90;;;;;;5044788;28;20208;-72
2021/08/24 04:50:21;;;;;;;6.40;4.20;;;12.90;99.90;;;;;;5046795;28;20181;-72
2021/08/24 04:52:47;;;;;;;7.30;4.90;;;12.90;99.90;;;;;;5043449;28;20181;-72
2021/08/24 04:55:13;;;;;;;6.40;5.17;;;12.90;99.90;;;;;;5045072;28;20180;-72
2021/08/24 04:57:38;;;;;;;7.23;4.73;;;12.90;99.90;;;;;;5044371;28;20247;-72
2021/08/24 05:00:06;;;;;;;4.90;4.40;;;12.90;99.90;;;;;;5041571;28;20945;-72
2021/08/24 05:02:32;;;;;;;5.13;4.60;;;12.90;99.90;;;;;;5043217;28;20181;-72
2021/08/24 05:04:57;;;;;;;9.53;4.13;;;12.90;99.90;;;;;;5049688;28;20433;-72
2021/08/24 05:07:23;;;;;;;7.70;5.00;;;12.90;99.90;;;;;;5039689;28;20181;-72
2021/08/24 05:09:48;;;;;;;5.77;4.20;;;12.90;99.90;;;;;;5041666;28;20175;-72
2021/08/24 05:12:14;;;;;;;4.87;4.40;;;12.90;99.90;;;;;;5054962;28;20182;-72
2021/08/24 05:14:39;;;;;;;4.73;4.23;;;12.90;99.90;;;;;;5054589;28;20206;-72
2021/08/24 05:17:05;;;;;;;7.67;4.60;;;13.00;99.90;;;;;;5043300;28;20208;-72
2021/08/24 05:19:30;;;;;;;6.70;5.20;;;13.00;99.90;;;;;;5034306;28;20610;-72
2021/08/24 05:21:56;;;;;;;11.90;5.33;;;13.00;99.90;;;;;;5034391;28;20251;-72
2021/08/24 05:24:21;;;;;;;5.13;4.40;;;13.00;99.90;;;;;;5040792;28;20586;-72
2021/08/24 05:26:47;;;;;;;6.00;5.37;;;13.10;99.90;;;;;;5054511;28;20240;-72
2021/08/24 05:29:16;;;;;;;5.37;4.77;;;13.10;99.90;;;;;;5045344;28;20182;-72
2021/08/24 05:31:41;;;;;;;8.17;5.17;;;13.10;99.90;;;;;;5046326;28;20176;-72
2021/08/24 05:34:07;;;;;;;6.67;4.60;;;13.20;99.90;;;;;;5054041;28;20401;-72
2021/08/24 05:36:32;;;;;;;8.50;5.60;;;13.20;99.90;;;;;;5054043;28;20196;-72
2021/08/24 05:38:58;;;;;;;6.47;5.80;;;13.30;99.90;;;;;;5044039;28;20213;-71
2021/08/24 05:41:24;;;;;;;7.60;4.93;;;13.30;99.90;;;;;;5043159;28;20532;-71
2021/08/24 05:43:49;;;;;;;11.37;6.20;;;13.30;99.90;;;;;;5053349;28;20187;-71
2021/08/24 05:46:15;;;;;;;8.17;5.50;;;13.40;99.90;;;;;;5040400;28;20187;-72
2021/08/24 05:48:41;;;;;;;8.87;5.60;;;13.40;99.90;;;;;;5037929;28;20337;-72
2021/08/24 05:51:09;;;;;;;9.93;6.10;;;13.50;99.90;;;;;;5042438;28;20506;-72
2021/08/24 05:53:35;;;;;;;9.33;5.37;;;13.50;99.90;;;;;;5040412;28;20437;-72
2021/08/24 05:56:01;;;;;;;10.23;6.50;;;13.50;99.90;;;;;;5041978;28;20456;-72
2021/08/24 05:58:26;;;;;;;8.23;5.90;;;13.60;99.90;;;;;;5037818;28;20590;-72
2021/08/24 06:00:52;;;;;;;6.67;5.93;;;13.60;99.90;;;;;;5041091;28;20648;-72
2021/08/24 06:03:22;;;;;;;6.43;5.30;;;13.70;99.90;;;;;;5040696;28;20181;-72
2021/08/24 06:05:47;;;;;;;8.17;5.70;;;13.70;99.90;;;;;;5033125;28;20153;-72
2021/08/24 06:08:13;;;;;;;6.63;4.90;;;13.70;99.90;;;;;;5048921;28;20497;-72
2021/08/24 06:10:39;;;;;;;5.70;4.80;;;13.80;99.90;;;;;;5048919;28;20241;-72
2021/08/24 06:13:07;;;;;;;5.20;4.70;;;13.90;99.90;;;;;;5036043;28;20833;-72
2021/08/24 06:15:33;;;;;;;6.93;5.60;;;13.90;99.90;;;;;;5039968;28;20542;-72
2021/08/24 06:17:59;;;;;;;5.40;4.90;;;14.00;99.90;;;;;;5040797;28;20464;-72
2021/08/24 06:20:25;;;;;;;6.20;4.80;;;14.00;99.90;;;;;;5040625;28;20452;-72
2021/08/24 06:22:50;;;;;;;5.07;4.53;;;14.10;99.90;;;;;;5043820;28;20176;-72
2021/08/24 06:25:17;;;;;;;6.43;5.40;;;14.10;99.90;;;;;;5040370;28;20538;-72
2021/08/24 06:27:43;;;;;;;6.70;5.20;;;14.20;99.90;;;;;;5041530;28;20537;-72
2021/08/24 06:30:10;;;;;;;5.93;5.30;;;14.30;99.90;;;;;;5041714;28;20404;-72
2021/08/24 06:32:41;;;;;;;6.43;4.17;;;14.30;99.90;;;;;;5038560;28;20224;-72
2021/08/24 06:35:08;;;;;;;7.70;6.13;;;14.40;99.90;;;;;;5043395;28;20439;-72
2021/08/24 06:37:33;;;;;;;5.70;4.57;;;14.50;99.90;;;;;;5036526;28;20444;-72
2021/08/24 06:39:59;;;;;;;5.73;4.27;;;14.50;99.90;;;;;;5041627;28;20456;-72
2021/08/24 06:42:25;;;;;;;6.93;4.60;;;14.60;99.90;;;;;;5037804;28;20319;-72
2021/08/24 06:44:51;;;;;;;5.77;4.80;;;14.70;99.90;;;;;;5038770;28;20641;-72
2021/08/24 06:47:16;;;;;;;6.97;4.67;;;14.80;99.90;;;;;;5033517;28;20430;-71
2021/08/24 06:49:42;;;;;;;6.27;4.30;;;14.80;99.90;;;;;;5034862;28;20220;-71
2021/08/24 06:52:08;;;;;;;6.57;4.30;;;14.90;99.90;;;;;;5039154;28;20191;-71
2021/08/24 06:54:34;;;;;;;10.30;5.57;;;15.00;99.90;;;;;;5041266;28;20629;-71
2021/08/24 06:57:03;;;;;;;5.00;4.47;;;15.00;99.90;;;;;;5032080;28;20199;-72
2021/08/24 06:59:29;;;;;;;7.10;3.90;;;15.10;99.90;;;;;;5040454;28;20458;-72
2021/08/24 07:01:54;;;;;;;9.37;3.93;;;15.20;99.90;;;;;;5037965;28;20979;-72
2021/08/24 07:04:20;;;;;;;5.50;3.50;;;15.20;99.90;;;;;;5041568;28;20653;-72
2021/08/24 07:06:50;;;;;;;8.67;3.03;;;15.40;99.90;;;;;;5037981;28;20176;-72
2021/08/24 07:09:16;;;;;;;5.40;3.97;;;15.40;99.90;;;;;;5041685;28;20255;-72
2021/08/24 07:11:42;;;;;;;4.73;3.47;;;15.50;99.90;;;;;;5038596;28;20853;-72
2021/08/24 07:14:07;;;;;;;3.20;2.73;;;15.60;99.90;;;;;;5041559;28;20201;-72
2021/08/24 07:16:33;;;;;;;4.40;3.50;;;15.70;99.90;;;;;;5037449;28;20571;-72
2021/08/24 07:18:59;;;;;;;6.87;4.60;;;15.70;99.90;;;;;;5038031;28;20625;-72
2021/08/24 07:21:26;;;;;;;4.47;3.60;;;15.80;99.90;;;;;;5041186;28;20168;-72
2021/08/24 07:23:52;;;;;;;3.57;3.00;;;15.80;99.90;;;;;;5042776;28;20417;-72
2021/08/24 07:26:19;;;;;;;3.47;3.10;;;15.90;99.90;;;;;;5041020;28;20434;-72
2021/08/24 07:28:45;;;;;;;6.13;2.90;;;16.00;99.90;;;;;;5035950;28;20427;-72
2021/08/24 07:31:12;;;;;;;3.03;2.43;;;16.00;99.90;;;;;;5038577;28;20423;-72
2021/08/24 07:33:38;;;;;;;3.40;2.83;;;16.10;99.90;;;;;;5040708;28;20437;-72
2021/08/24 07:36:04;;;;;;;4.87;2.70;;;16.20;99.90;;;;;;5043224;28;20484;-72
2021/08/24 07:38:29;;;;;;;2.70;2.20;;;16.30;99.90;;;;;;5041979;28;20161;-72
2021/08/24 07:40:55;;;;;;;2.93;2.53;;;16.40;99.90;;;;;;5043365;28;20220;-72
2021/08/24 07:43:21;;;;;;;2.47;2.10;;;16.50;99.90;;;;;;5040326;28;20247;-72
2021/08/24 07:45:48;;;;;;;3.73;2.03;;;16.60;99.90;;;;;;5040125;28;20180;-72
2021/08/24 07:48:14;;;;;;;3.77;2.43;;;16.80;99.90;;;;;;5042773;28;20422;-72
2021/08/24 07:50:40;;;;;;;4.03;3.00;;;17.00;99.90;;;;;;5034398;28;20637;-71
2021/08/24 07:53:06;;;;;;;2.67;2.30;;;17.20;99.90;;;;;;5038990;28;20460;-71
2021/08/24 07:55:34;;;;;;;2.23;2.00;;;17.40;99.90;;;;;;5041012;28;20446;-71
2021/08/24 07:58:00;;;;;;;4.47;2.17;;;17.60;99.90;;;;;;5040046;28;20307;-71
2021/08/24 08:00:26;;;;;;;3.23;2.73;;;17.70;99.90;;;;;;5040709;28;20525;-71
2021/08/24 08:02:51;;;;;;;2.70;1.70;;;17.70;99.90;;;;;;5038099;28;20172;-71
2021/08/24 08:05:17;;;;;;;2.33;1.70;;;17.80;99.90;;;;;;5047830;28;20171;-71
2021/08/24 08:07:44;;;;;;;2.27;1.90;;;17.70;99.90;;;;;;5043890;28;20163;-71
2021/08/24 08:10:10;;;;;;;2.33;1.57;;;17.80;99.90;;;;;;5039107;28;20523;-71
2021/08/24 08:12:36;;;;;;;2.90;1.73;;;17.70;99.90;;;;;;5038569;28;20419;-71
2021/08/24 08:15:04;;;;;;;2.73;1.97;;;17.80;99.90;;;;;;5041974;28;20466;-71
2021/08/24 08:17:30;;;;;;;3.17;2.10;;;17.90;99.90;;;;;;5043194;28;20746;-71
2021/08/24 08:19:55;;;;;;;2.50;1.83;;;18.00;99.90;;;;;;5043459;28;20411;-72
2021/08/24 08:22:21;;;;;;;3.73;2.30;;;18.00;99.90;;;;;;5046275;28;20567;-72
2021/08/24 08:24:47;;;;;;;3.43;2.13;;;18.10;99.90;;;;;;5043454;28;20178;-72
2021/08/24 08:27:12;;;;;;;1.93;1.33;;;18.30;99.90;;;;;;5044499;28;20181;-72
2021/08/24 08:29:38;;;;;;;2.43;1.50;;;18.30;99.90;;;;;;5040289;28;20199;-72
2021/08/24 08:32:10;;;;;;;4.13;1.60;;;18.40;99.90;;;;;;5037502;28;20553;-71
2021/08/24 08:34:36;;;;;;;3.90;1.83;;;18.50;99.90;;;;;;5038619;28;20190;-71
2021/08/24 08:37:02;;;;;;;2.07;1.53;;;18.60;99.90;;;;;;5042302;28;20532;-71
2021/08/24 08:39:28;;;;;;;1.90;1.53;;;18.60;99.90;;;;;;5045457;28;20411;-71
2021/08/24 08:47:31;;;;;;;2.30;1.60;;;18.60;99.90;;;;;;5068020;28;20546;-71
2021/08/24 08:58:07;;;;;;;4.57;1.70;;;18.80;99.90;;;;;;5068596;28;20919;-71
2021/08/24 09:00:49;;;;;;;1.90;1.60;;;18.90;99.90;;;;;;5052647;28;20439;-71
2021/08/24 09:03:18;;;;;;;2.43;1.30;;;18.90;99.40;;;;;;5032275;28;20443;-71
2021/08/24 09:05:46;;;;;;;2.73;1.90;;;18.90;99.20;;;;;;5060505;28;20424;-71
2021/08/24 09:08:15;;;;;;;5.37;2.20;;;18.90;99.80;;;;;;5069477;28;20393;-71
2021/08/24 09:13:39;;;;;;;2.17;1.50;;;18.90;98.90;;;;;;5107253;27;20933;-71
2021/08/24 09:16:36;;;;;;;2.80;1.20;;;18.80;99.20;;;;;;5093674;28;20511;-71
2021/08/24 09:21:45;;;;;;;2.33;2.03;;;18.80;99.90;;;;;;5068256;28;21054;-76
2021/08/24 09:24:21;;;;;;;8.20;2.00;;;19.00;99.60;;;;;;5066582;28;20410;-76
2021/08/24 09:29:33;;;;;;;5.00;2.17;;;19.00;99.70;;;;;;5067581;28;21009;-72
2021/08/24 09:32:00;;;;;;;3.37;2.20;;;19.20;99.50;;;;;;5048705;28;20974;-72
2021/08/24 09:34:29;;;;;;;2.90;1.60;;;19.30;99.60;;;;;;5045844;28;20419;-72
2021/08/24 09:36:55;;;;;;;5.23;2.37;;;19.40;97.80;;;;;;5044643;28;20410;-72
2021/08/24 09:39:58;;;;;;;2.30;1.37;;;19.40;97.70;;;;;;5040602;28;20438;-72
2021/08/24 09:50:38;;;;;;;2.80;2.23;;;19.50;98.90;;;;;;5113443;27;20525;-72
2021/08/24 09:53:07;;;;;;;3.00;1.70;;;19.70;96.80;;;;;;5106813;28;20734;-72
2021/08/24 09:55:39;;;;;;;3.90;1.70;;;19.80;96.20;;;;;;5102842;28;20498;-72
2021/08/24 09:58:07;;;;;;;2.77;1.40;;;20.00;96.40;;;;;;5105612;28;20448;-72
2021/08/24 10:00:53;;;;;;;3.57;1.83;;;20.10;95.00;;;;;;5091989;28;20461;-72
2021/08/24 10:03:21;;;;;;;3.17;1.60;;;20.40;95.20;;;;;;5097682;28;20407;-72
2021/08/24 10:05:47;;;;;;;1.73;1.20;;;20.60;93.90;;;;;;5093642;28;20431;-72
2021/08/24 10:08:34;;;;;;;3.67;2.13;;;20.80;94.40;;;;;;5096058;28;20465;-72
2021/08/24 10:11:05;;;;;;;2.20;1.60;;;20.90;93.90;;;;;;5082063;28;20421;-72
2021/08/24 10:13:33;;;;;;;3.37;2.30;;;21.00;93.40;;;;;;5095603;28;20501;-72
2021/08/24 10:16:06;;;;;;;1.63;1.40;;;21.10;93.20;;;;;;5094904;28;20420;-72
2021/08/24 10:18:33;;;;;;;5.17;1.73;;;21.10;93.20;;;;;;5096975;28;20421;-72
2021/08/24 10:21:05;;;;;;;2.10;1.47;;;21.10;92.20;;;;;;5093581;28;20795;-72
2021/08/24 10:23:35;;;;;;;2.30;1.70;;;21.00;91.80;;;;;;5096084;28;20459;-72
2021/08/24 10:26:04;;;;;;;2.80;1.70;;;20.80;90.80;;;;;;5092168;28;20433;-72
2021/08/24 10:28:37;;;;;;;2.00;1.50;;;20.70;90.70;;;;;;5086488;28;20460;-72
2021/08/24 10:34:49;;;;;;;3.47;1.70;;;20.40;90.90;;;;;;5069821;28;20633;-70
2021/08/24 10:37:32;;;;;;;2.50;2.00;;;20.20;90.20;;;;;;5069437;28;20456;-70
2021/08/24 10:46:11;;;;;;;2.73;1.83;;;19.80;92.60;;;;;;5069840;28;20512;-71
2021/08/24 10:48:37;;;;;;;3.33;1.60;;;19.70;91.50;;;;;;5054165;28;20430;-71
2021/08/24 11:01:54;;;;;;;4.17;2.40;;;19.40;92.80;;;;;;5075877;28;20520;-72
2021/08/24 11:04:54;;;;;;;3.00;2.07;;;19.40;94.50;;;;;;5064586;28;20410;-72
2021/08/24 11:10:05;;;;;;;1.67;1.40;;;19.40;94.20;;;;;;5069597;28;20531;-72
2021/08/24 11:12:58;;;;;;;2.87;1.90;;;19.40;94.30;;;;;;5069403;28;20402;-72
2021/08/24 11:21:25;;;;;;;4.00;2.10;;;19.30;93.80;;;;;;5108967;27;20895;-72
2021/08/24 11:29:47;;;;;;;2.60;1.80;;;19.20;94.30;;;;;;5060807;28;20946;-71
2021/08/24 11:32:21;;;;;;;2.87;2.13;;;19.20;94.10;;;;;;5049237;28;20481;-72
2021/08/24 11:34:55;;;;;;;7.57;2.43;;;19.20;94.40;;;;;;5049229;28;20962;-71
2021/08/24 11:37:27;;;;;;;3.50;1.87;;;19.20;93.80;;;;;;5057724;28;20824;-71
2021/08/24 11:42:47;;;;;;;4.47;1.93;;;19.20;94.20;;;;;;5075060;28;20526;-71
2021/08/24 11:45:36;;;;;;;3.30;1.70;;;19.20;95.10;;;;;;5069637;28;20410;-71
2021/08/24 11:48:09;;;;;;;2.60;1.90;;;19.20;95.40;;;;;;5067450;28;20433;-71
2021/08/24 11:51:01;;;;;;;2.90;1.80;;;19.20;94.90;;;;;;5071255;28;20500;-71
2021/08/24 11:56:05;;;;;;;6.63;2.17;;;19.20;94.00;;;;;;5064656;28;21019;-71
2021/08/24 12:01:08;;;;;;;3.83;1.80;;;19.10;95.30;;;;;;5101239;27;20541;-71
2021/08/24 12:03:37;;;;;;;3.70;2.30;;;19.10;96.30;;;;;;5109760;28;20734;-71
2021/08/24 12:06:09;;;;;;;4.20;2.40;;;19.10;93.70;;;;;;5109692;28;20433;-71
2021/08/24 12:08:44;;;;;;;2.20;1.70;;;19.10;94.50;;;;;;5106371;28;21003;-72
2021/08/24 12:11:15;;;;;;;2.20;1.63;;;19.10;95.10;;;;;;5108516;28;20892;-71
2021/08/24 12:13:46;;;;;;;2.50;1.47;;;19.20;94.20;;;;;;5105213;28;20507;-71
2021/08/24 12:18:52;;;;;;;3.50;2.00;;;19.20;93.60;;;;;;5053293;28;21197;-72
2021/08/24 12:21:33;;;;;;;2.87;1.77;;;19.30;93.00;;;;;;5049819;28;20764;-72
2021/08/24 12:24:35;;;;;;;3.17;1.67;;;19.20;92.90;;;;;;5049852;28;20390;-72
2021/08/24 12:37:56;;;;;;;4.53;2.40;;;19.20;92.80;;;;;;5069432;28;20570;-72
2021/08/24 12:51:50;;;;;;;4.17;2.37;;;19.20;93.70;;;;;;5089600;28;20886;-71
2021/08/24 12:54:19;;;;;;;3.97;2.13;;;19.20;95.20;;;;;;5078509;28;21342;-71
2021/08/24 12:56:48;;;;;;;2.20;1.50;;;19.20;95.90;;;;;;5076722;28;20413;-71
2021/08/24 13:07:48;;;;;;;7.13;2.60;;;19.40;93.60;;;;;;5069506;28;20508;-72
2021/08/24 13:10:33;;;;;;;3.10;2.17;;;19.60;92.40;;;;;;5070052;28;20449;-71
2021/08/24 13:13:01;;;;;;;3.33;1.60;;;19.70;93.40;;;;;;5063779;28;20489;-72
2021/08/24 13:18:26;;;;;;;3.10;2.40;;;19.70;92.60;;;;;;5051044;28;20547;-70
2021/08/24 13:20:54;;;;;;;7.80;2.47;;;19.80;93.50;;;;;;5043202;28;20947;-70
2021/08/24 13:26:03;;;;;;;4.30;2.70;;;19.80;94.00;;;;;;5073419;28;20523;-70
2021/08/24 13:28:32;;;;;;;3.43;2.40;;;19.80;94.20;;;;;;5068793;28;20426;-71
2021/08/24 13:31:07;;;;;;;2.17;1.50;;;19.80;94.30;;;;;;5049743;28;20468;-70
2021/08/24 13:33:42;;;;;;;4.10;2.07;;;19.80;92.30;;;;;;5068227;28;20394;-70
2021/08/24 13:36:23;;;;;;;3.80;2.33;;;19.90;92.60;;;;;;5069406;28;20402;-70
2021/08/24 13:38:54;;;;;;;3.83;2.17;;;19.90;93.60;;;;;;5049915;28;20593;-71
2021/08/24 13:41:26;;;;;;;3.17;2.23;;;20.00;93.60;;;;;;5051150;28;20872;-71
2021/08/24 13:43:54;;;;;;;4.00;2.33;;;20.00;94.00;;;;;;5049252;28;20497;-71
2021/08/24 13:46:31;;;;;;;2.47;1.90;;;20.10;94.30;;;;;;5049464;28;20456;-71
2021/08/24 13:48:59;;;;;;;3.43;2.00;;;20.20;94.60;;;;;;5049389;28;20394;-71
2021/08/24 13:51:25;;;;;;;2.40;1.60;;;20.20;95.00;;;;;;5049733;28;20422;-71
2021/08/24 13:53:58;;;;;;;2.57;1.90;;;20.20;94.00;;;;;;5051435;28;20414;-71
2021/08/24 13:56:34;;;;;;;3.17;1.60;;;20.10;94.00;;;;;;5049702;28;20402;-71
2021/08/24 13:59:00;;;;;;;3.20;2.17;;;20.10;94.30;;;;;;5069909;28;20476;-71
2021/08/24 14:01:31;;;;;;;3.60;2.20;;;20.00;94.10;;;;;;5051968;28;20513;-71
2021/08/24 14:07:00;;;;;;;2.87;1.80;;;19.80;93.10;;;;;;5069888;28;20634;-71
2021/08/24 14:12:09;;;;;;;3.00;1.87;;;19.80;94.00;;;;;;5056888;28;20888;-71
2021/08/24 14:17:23;;;;;;;3.50;2.20;;;19.70;94.30;;;;;;5069696;28;20535;-71
2021/08/24 14:19:49;;;;;;;2.03;1.37;;;19.60;94.70;;;;;;5069951;28;20906;-71
2021/08/24 14:22:16;;;;;;;4.23;2.00;;;19.60;92.90;;;;;;5069985;28;20383;-71
2021/08/24 14:24:43;;;;;;;3.43;2.23;;;19.60;92.90;;;;;;5069884;28;20793;-71
2021/08/24 14:27:12;;;;;;;3.57;2.37;;;19.60;93.20;;;;;;5064751;28;20411;-71
2021/08/24 14:29:39;;;;;;;2.90;1.93;;;19.60;93.40;;;;;;5063851;28;20414;-71
2021/08/24 14:32:08;;;;;;;3.90;1.77;;;19.70;93.00;;;;;;5064975;28;20414;-71
2021/08/24 14:37:38;;;;;;;3.20;2.07;;;19.80;93.00;;;;;;5070034;28;20539;-71
2021/08/24 14:40:06;;;;;;;2.77;1.60;;;19.90;93.20;;;;;;5068117;28;20387;-72
2021/08/24 14:42:56;;;;;;;3.20;1.87;;;20.00;92.80;;;;;;5067537;28;20449;-72
2021/08/24 14:45:26;;;;;;;2.50;1.90;;;19.90;93.20;;;;;;5059335;28;20424;-72
2021/08/24 14:50:39;;;;;;;1.67;1.10;;;19.90;93.90;;;;;;5069029;28;20542;-71
2021/08/24 14:53:08;;;;;;;2.63;1.57;;;20.00;94.40;;;;;;5069803;28;20389;-71
2021/08/24 14:55:39;;;;;;;2.23;1.83;;;20.00;94.10;;;;;;5069717;28;20436;-72
2021/08/24 14:58:21;;;;;;;3.10;1.90;;;20.10;93.80;;;;;;5054731;28;20931;-71
2021/08/24 15:03:29;;;;;;;3.30;2.20;;;20.10;93.80;;;;;;5053606;28;20975;-71
2021/08/24 15:05:58;;;;;;;3.03;1.77;;;20.30;92.60;;;;;;5049881;28;20434;-71
2021/08/24 15:11:26;;;;;;;3.70;2.03;;;20.20;92.60;;;;;;5069753;28;20524;-72
2021/08/24 15:16:39;;;;;;;5.50;2.30;;;20.10;93.20;;;;;;5069755;28;20505;-71
2021/08/24 15:19:13;;;;;;;4.20;2.10;;;20.00;92.30;;;;;;5064821;28;20438;-71
2021/08/24 15:21:47;;;;;;;2.90;2.13;;;19.90;93.30;;;;;;5050155;28;20393;-71
2021/08/24 15:24:33;;;;;;;2.80;1.40;;;19.90;92.60;;;;;;5049745;28;20801;-71
2021/08/24 15:27:04;;;;;;;2.60;1.47;;;19.80;93.20;;;;;;5055478;28;20495;-71
2021/08/24 15:29:34;;;;;;;2.30;2.00;;;19.80;93.20;;;;;;5065104;28;20494;-71
2021/08/24 15:32:03;;;;;;;3.03;1.70;;;19.70;93.10;;;;;;5068750;28;20436;-71
2021/08/24 15:34:30;;;;;;;2.63;2.10;;;19.70;93.80;;;;;;5069555;28;20527;-71
2021/08/24 15:36:56;;;;;;;2.50;1.30;;;19.60;94.20;;;;;;5067986;28;20460;-71
2021/08/24 15:39:23;;;;;;;5.13;1.93;;;19.60;94.30;;;;;;5069364;28;20386;-71
2021/08/24 15:41:51;;;;;;;2.37;1.60;;;19.60;94.10;;;;;;5069087;28;20884;-71